sensor_id;sensor_type;location;lat;lon;timestamp;pressure;altitude;pressure_sealevel;temperature;humidity
4123;BME280;2075;51.062;6.920;2022-10-16T00:00:56;-11667.00;;;-144.48;100.00
4123;BME280;2075;51.062;6.920;2022-10-16T00:03:43;-11667.00;;;-144.48;100.00
4123;BME280;2075;51.062;6.920;2022-10-16T00:06:29;-11667.00;;;-144.48;100.00
4123;BME280;2075;51.062;6.920;2022-10-16T00:09:16;-11667.00;;;-144.48;100.00
4123;BME280;2075;51.062;6.920;2022-10-16T00:12:01;-11667.00;;;-144.48;100.00
4123;BME280;2075;51.062;6.920;2022-10-16T00:14:47;-11667.00;;;-144.48;100.00
4123;BME280;2075;51.062;6.920;2022-10-16T00:17:33;-11667.00;;;-144.48;100.00
4123;BME280;2075;51.062;6.920;2022-10-16T00:20:18;-11667.00;;;-144.48;100.00
4123;BME280;2075;51.062;6.920;2022-10-16T00:23:04;-11667.00;;;-144.48;100.00
4123;BME280;2075;51.062;6.920;2022-10-16T00:25:58;-11667.00;;;-144.48;100.00
4123;BME280;2075;51.062;6.920;2022-10-16T00:28:45;-11667.00;;;-144.48;100.00
4123;BME280;2075;51.062;6.920;2022-10-16T00:31:30;-11667.00;;;-144.48;100.00
4123;BME280;2075;51.062;6.920;2022-10-16T00:34:16;-11667.00;;;-144.48;100.00
4123;BME280;2075;51.062;6.920;2022-10-16T00:37:02;-11667.00;;;-144.48;100.00
4123;BME280;2075;51.062;6.920;2022-10-16T00:39:48;-11667.00;;;-144.48;100.00
4123;BME280;2075;51.062;6.920;2022-10-16T00:42:34;-11667.00;;;-144.48;100.00
4123;BME280;2075;51.062;6.920;2022-10-16T00:45:20;-11667.00;;;-144.48;100.00
4123;BME280;2075;51.062;6.920;2022-10-16T00:48:10;-11667.00;;;-144.48;100.00
4123;BME280;2075;51.062;6.920;2022-10-16T00:50:57;-11667.00;;;-144.48;100.00
4123;BME280;2075;51.062;6.920;2022-10-16T00:53:44;-11667.00;;;-144.48;100.00
4123;BME280;2075;51.062;6.920;2022-10-16T00:56:29;-11667.00;;;-144.48;100.00
4123;BME280;2075;51.062;6.920;2022-10-16T00:59:19;-11667.00;;;-144.48;100.00
4123;BME280;2075;51.062;6.920;2022-10-16T01:02:08;-11667.00;;;-144.48;100.00
4123;BME280;2075;51.062;6.920;2022-10-16T01:04:54;-11667.00;;;-144.48;100.00
4123;BME280;2075;51.062;6.920;2022-10-16T01:07:45;-11667.00;;;-144.48;100.00
4123;BME280;2075;51.062;6.920;2022-10-16T01:13:25;-11667.00;;;-144.48;100.00
4123;BME280;2075;51.062;6.920;2022-10-16T01:16:19;-11667.00;;;-144.48;100.00
4123;BME280;2075;51.062;6.920;2022-10-16T01:19:13;-11667.00;;;-144.48;100.00
4123;BME280;2075;51.062;6.920;2022-10-16T01:22:03;-11667.00;;;-144.48;100.00
4123;BME280;2075;51.062;6.920;2022-10-16T01:24:49;-11667.00;;;-144.48;100.00
4123;BME280;2075;51.062;6.920;2022-10-16T01:27:39;-11667.00;;;-144.48;100.00
4123;BME280;2075;51.062;6.920;2022-10-16T01:30:29;-11667.00;;;-144.48;100.00
4123;BME280;2075;51.062;6.920;2022-10-16T01:33:20;-11667.00;;;-144.48;100.00
4123;BME280;2075;51.062;6.920;2022-10-16T01:36:11;-11667.00;;;-144.48;100.00
4123;BME280;2075;51.062;6.920;2022-10-16T01:39:00;-11667.00;;;-144.48;100.00
4123;BME280;2075;51.062;6.920;2022-10-16T01:41:49;-11667.00;;;-144.48;100.00
4123;BME280;2075;51.062;6.920;2022-10-16T01:44:39;-11667.00;;;-144.48;100.00
4123;BME280;2075;51.062;6.920;2022-10-16T01:47:26;-11667.00;;;-144.48;100.00
4123;BME280;2075;51.062;6.920;2022-10-16T01:50:14;-11667.00;;;-144.48;100.00
4123;BME280;2075;51.062;6.920;2022-10-16T01:53:02;-11667.00;;;-144.48;100.00
4123;BME280;2075;51.062;6.920;2022-10-16T01:55:50;-11667.00;;;-144.48;100.00
4123;BME280;2075;51.062;6.920;2022-10-16T01:58:43;-11667.00;;;-144.48;100.00
4123;BME280;2075;51.062;6.920;2022-10-16T02:01:33;-11667.00;;;-144.48;100.00
4123;BME280;2075;51.062;6.920;2022-10-16T02:04:23;-11665.53;;;-144.48;100.00
4123;BME280;2075;51.062;6.920;2022-10-16T02:07:10;-11413.53;;;-144.48;100.00
4123;BME280;2075;51.062;6.920;2022-10-16T02:09:56;-11413.53;;;-144.48;100.00
4123;BME280;2075;51.062;6.920;2022-10-16T02:12:44;-11161.53;;;-144.48;100.00
4123;BME280;2075;51.062;6.920;2022-10-16T02:15:30;-11161.53;;;-144.48;100.00
4123;BME280;2075;51.062;6.920;2022-10-16T02:18:17;-11161.53;;;-144.48;100.00
4123;BME280;2075;51.062;6.920;2022-10-16T02:21:10;-11413.53;;;-144.48;100.00
4123;BME280;2075;51.062;6.920;2022-10-16T02:24:03;-11161.53;;;-144.48;100.00
4123;BME280;2075;51.062;6.920;2022-10-16T02:26:57;-10657.44;;;-144.48;100.00
4123;BME280;2075;51.062;6.920;2022-10-16T02:29:49;-10405.38;;;-144.48;100.00
4123;BME280;2075;51.062;6.920;2022-10-16T02:32:41;-10657.44;;;-144.48;100.00
4123;BME280;2075;51.062;6.920;2022-10-16T02:35:30;-10909.50;;;-144.48;100.00
4123;BME280;2075;51.062;6.920;2022-10-16T02:38:17;-10909.50;;;-144.48;100.00
4123;BME280;2075;51.062;6.920;2022-10-16T02:41:03;-10657.44;;;-144.48;100.00
4123;BME280;2075;51.062;6.920;2022-10-16T02:43:49;-9396.91;;;-144.48;100.00
4123;BME280;2075;51.062;6.920;2022-10-16T02:46:34;-8892.53;;;-144.48;100.00
4123;BME280;2075;51.062;6.920;2022-10-16T02:49:28;-8640.34;;;-144.48;100.00
4123;BME280;2075;51.062;6.920;2022-10-16T02:52:15;-8135.88;;;-144.48;100.00
4123;BME280;2075;51.062;6.920;2022-10-16T02:55:01;-8892.53;;;-144.48;100.00
4123;BME280;2075;51.062;6.920;2022-10-16T02:57:46;-9144.72;;;-144.48;100.00
4123;BME280;2075;51.062;6.920;2022-10-16T03:00:32;-8640.34;;;-144.48;100.00
4123;BME280;2075;51.062;6.920;2022-10-16T03:03:20;-7883.59;;;-144.48;100.00
4123;BME280;2075;51.062;6.920;2022-10-16T03:06:06;-8135.88;;;-144.48;100.00
4123;BME280;2075;51.062;6.920;2022-10-16T03:08:52;-7631.31;;;-144.48;100.00
4123;BME280;2075;51.062;6.920;2022-10-16T03:11:38;-7631.31;;;-144.48;100.00
4123;BME280;2075;51.062;6.920;2022-10-16T03:14:25;-6369.59;;;-144.48;100.00
4123;BME280;2075;51.062;6.920;2022-10-16T03:17:11;-5107.41;;;-144.48;100.00
4123;BME280;2075;51.062;6.920;2022-10-16T03:19:57;-5359.88;;;-144.48;100.00
4123;BME280;2075;51.062;6.920;2022-10-16T03:22:45;-7631.31;;;-144.48;100.00
4123;BME280;2075;51.062;6.920;2022-10-16T03:25:32;-8892.53;;;-144.48;100.00
4123;BME280;2075;51.062;6.920;2022-10-16T03:28:17;-7631.31;;;-144.48;100.00
4123;BME280;2075;51.062;6.920;2022-10-16T03:31:03;-7631.31;;;-144.48;100.00
4123;BME280;2075;51.062;6.920;2022-10-16T03:33:48;-8892.53;;;-144.48;100.00
4123;BME280;2075;51.062;6.920;2022-10-16T03:36:35;-8388.09;;;-144.48;100.00
4123;BME280;2075;51.062;6.920;2022-10-16T03:39:21;-7883.59;;;-144.48;100.00
4123;BME280;2075;51.062;6.920;2022-10-16T03:42:08;-6874.34;;;-144.48;100.00
4123;BME280;2075;51.062;6.920;2022-10-16T03:44:53;-6117.19;;;-144.48;100.00
4123;BME280;2075;51.062;6.920;2022-10-16T03:47:38;-5107.41;;;-144.48;100.00
4123;BME280;2075;51.062;6.920;2022-10-16T03:50:27;-3844.69;;;-144.48;100.00
4123;BME280;2075;51.062;6.920;2022-10-16T03:53:15;-3339.50;;;-144.48;100.00
4123;BME280;2075;51.062;6.920;2022-10-16T03:56:00;-4854.91;;;-144.48;100.00
4123;BME280;2075;51.062;6.920;2022-10-16T03:58:47;-6117.19;;;-144.48;100.00
4123;BME280;2075;51.062;6.920;2022-10-16T04:01:33;-5359.88;;;-144.48;100.00
4123;BME280;2075;51.062;6.920;2022-10-16T04:04:18;-4097.28;;;-144.48;100.00
4123;BME280;2075;51.062;6.920;2022-10-16T04:07:04;-4349.84;;;-144.48;100.00
4123;BME280;2075;51.062;6.920;2022-10-16T04:09:50;-3086.84;;;-144.48;100.00
4123;BME280;2075;51.062;6.920;2022-10-16T04:12:38;-1823.38;;;-144.48;100.00
4123;BME280;2075;51.062;6.920;2022-10-16T04:15:25;-3086.84;;;-144.48;100.00
4123;BME280;2075;51.062;6.920;2022-10-16T04:18:11;-3844.69;;;-144.48;100.00
4123;BME280;2075;51.062;6.920;2022-10-16T04:20:56;-3844.69;;;-144.48;100.00
4123;BME280;2075;51.062;6.920;2022-10-16T04:23:47;-2581.53;;;-144.48;100.00
4123;BME280;2075;51.062;6.920;2022-10-16T04:26:33;-1570.63;;;-144.48;100.00
4123;BME280;2075;51.062;6.920;2022-10-16T04:29:19;-2328.84;;;-144.48;100.00
4123;BME280;2075;51.062;6.920;2022-10-16T04:32:08;-3339.50;;;-144.48;100.00
4123;BME280;2075;51.062;6.920;2022-10-16T04:34:54;-5107.41;;;-144.48;100.00
4123;BME280;2075;51.062;6.920;2022-10-16T04:37:39;-6874.34;;;-144.48;100.00
4123;BME280;2075;51.062;6.920;2022-10-16T04:40:24;-9144.72;;;-144.48;100.00
4123;BME280;2075;51.062;6.920;2022-10-16T04:43:13;-10405.38;;;-144.48;100.00
4123;BME280;2075;51.062;6.920;2022-10-16T04:45:59;-10153.28;;;-144.48;100.00
4123;BME280;2075;51.062;6.920;2022-10-16T04:48:46;-10153.28;;;-144.48;100.00
4123;BME280;2075;51.062;6.920;2022-10-16T04:51:31;-9649.03;;;-144.48;100.00
4123;BME280;2075;51.062;6.920;2022-10-16T04:54:17;-9901.19;;;-144.48;100.00
4123;BME280;2075;51.062;6.920;2022-10-16T04:57:11;-10657.44;;;-144.48;100.00
4123;BME280;2075;51.062;6.920;2022-10-16T04:59:59;-10909.50;;;-144.48;100.00
4123;BME280;2075;51.062;6.920;2022-10-16T05:02:46;-10909.50;;;-144.48;100.00
4123;BME280;2075;51.062;6.920;2022-10-16T05:05:36;-10657.44;;;-144.48;100.00
4123;BME280;2075;51.062;6.920;2022-10-16T05:08:24;-10909.50;;;-144.48;100.00
4123;BME280;2075;51.062;6.920;2022-10-16T05:11:10;-11161.53;;;-144.48;100.00
4123;BME280;2075;51.062;6.920;2022-10-16T05:13:55;-11665.53;;;-144.48;100.00
4123;BME280;2075;51.062;6.920;2022-10-16T05:16:41;-11667.00;;;-144.48;100.00
4123;BME280;2075;51.062;6.920;2022-10-16T05:19:31;-11667.00;;;-144.48;100.00
4123;BME280;2075;51.062;6.920;2022-10-16T05:22:18;-11667.00;;;-144.48;100.00
4123;BME280;2075;51.062;6.920;2022-10-16T05:25:05;-11667.00;;;-144.48;100.00
4123;BME280;2075;51.062;6.920;2022-10-16T05:27:56;-11667.00;;;-144.48;100.00
4123;BME280;2075;51.062;6.920;2022-10-16T05:30:41;-11667.00;;;-144.48;100.00
4123;BME280;2075;51.062;6.920;2022-10-16T05:33:27;-11667.00;;;-144.48;100.00
4123;BME280;2075;51.062;6.920;2022-10-16T05:36:14;-11667.00;;;-144.48;100.00
4123;BME280;2075;51.062;6.920;2022-10-16T05:39:02;-11667.00;;;-144.48;100.00
4123;BME280;2075;51.062;6.920;2022-10-16T05:41:51;-11667.00;;;-144.48;100.00
4123;BME280;2075;51.062;6.920;2022-10-16T05:44:37;-11667.00;;;-144.48;100.00
4123;BME280;2075;51.062;6.920;2022-10-16T05:47:23;-11667.00;;;-144.48;100.00
4123;BME280;2075;51.062;6.920;2022-10-16T05:50:08;-11667.00;;;-144.48;100.00
4123;BME280;2075;51.062;6.920;2022-10-16T05:52:53;-11667.00;;;-144.48;100.00
4123;BME280;2075;51.062;6.920;2022-10-16T05:55:40;-11665.53;;;-144.48;100.00
4123;BME280;2075;51.062;6.920;2022-10-16T05:58:28;-11667.00;;;-144.48;100.00
4123;BME280;2075;51.062;6.920;2022-10-16T06:01:16;-11667.00;;;-144.48;100.00
4123;BME280;2075;51.062;6.920;2022-10-16T06:04:08;-11667.00;;;-144.48;100.00
4123;BME280;2075;51.062;6.920;2022-10-16T06:06:57;-11667.00;;;-144.48;100.00
4123;BME280;2075;51.062;6.920;2022-10-16T06:09:48;-11667.00;;;-144.48;100.00
4123;BME280;2075;51.062;6.920;2022-10-16T06:12:35;-11667.00;;;-144.48;100.00
4123;BME280;2075;51.062;6.920;2022-10-16T06:15:20;-11667.00;;;-144.48;100.00
4123;BME280;2075;51.062;6.920;2022-10-16T06:18:05;-11161.53;;;-144.48;100.00
4123;BME280;2075;51.062;6.920;2022-10-16T06:20:51;-10909.50;;;-144.48;100.00
4123;BME280;2075;51.062;6.920;2022-10-16T06:23:36;-10153.28;;;-144.48;100.00
4123;BME280;2075;51.062;6.920;2022-10-16T06:26:24;-8640.34;;;-144.48;100.00
4123;BME280;2075;51.062;6.920;2022-10-16T06:29:13;-7631.31;;;-144.48;100.00
4123;BME280;2075;51.062;6.920;2022-10-16T06:31:59;-8135.88;;;-144.48;100.00
4123;BME280;2075;51.062;6.920;2022-10-16T06:34:44;-6621.97;;;-144.48;100.00
4123;BME280;2075;51.062;6.920;2022-10-16T06:37:30;-5359.88;;;-144.48;100.00
4123;BME280;2075;51.062;6.920;2022-10-16T06:40:17;-2834.19;;;-144.48;100.00
4123;BME280;2075;51.062;6.920;2022-10-16T06:43:03;-3339.50;;;-144.48;100.00
4123;BME280;2075;51.062;6.920;2022-10-16T06:45:52;2982.25;;;-144.48;100.00
4123;BME280;2075;51.062;6.920;2022-10-16T06:48:37;9316.19;;;-144.48;100.00
4123;BME280;2075;51.062;6.920;2022-10-16T06:51:23;12107.00;;;-144.48;100.00
4123;BME280;2075;51.062;6.920;2022-10-16T06:54:09;13630.22;;;-144.48;100.00
4123;BME280;2075;51.062;6.920;2022-10-16T06:56:54;14138.13;;;-144.48;100.00
4123;BME280;2075;51.062;6.920;2022-10-16T06:59:40;13630.22;;;-144.48;100.00
4123;BME280;2075;51.062;6.920;2022-10-16T07:02:27;14392.13;;;-144.48;100.00
4123;BME280;2075;51.062;6.920;2022-10-16T07:05:12;14646.13;;;-144.48;100.00
4123;BME280;2075;51.062;6.920;2022-10-16T07:07:57;18204.19;;;-144.48;100.00
4123;BME280;2075;51.062;6.920;2022-10-16T07:10:44;20239.06;;;-144.48;100.00
4123;BME280;2075;51.062;6.920;2022-10-16T07:13:33;23293.75;;;-144.48;100.00
4123;BME280;2075;51.062;6.920;2022-10-16T07:16:20;26861.09;;;-144.48;100.00
4123;BME280;2075;51.062;6.920;2022-10-16T07:19:08;31963.94;;;-144.48;100.00
4123;BME280;2075;51.062;6.920;2022-10-16T07:21:58;32219.28;;;-144.48;100.00
4123;BME280;2075;51.062;6.920;2022-10-16T07:24:44;36307.50;;;-144.48;100.00
4123;BME280;2075;51.062;6.920;2022-10-16T07:27:30;36563.16;;;-144.48;100.00
4123;BME280;2075;51.062;6.920;2022-10-16T07:30:15;32730.03;;;-144.48;100.00
4123;BME280;2075;51.062;6.920;2022-10-16T07:33:00;27371.03;;;-144.48;100.00
4123;BME280;2075;51.062;6.920;2022-10-16T07:35:52;23803.16;;;-144.48;100.00
4123;BME280;2075;51.062;6.920;2022-10-16T07:38:38;26351.25;;;-144.48;100.00
4123;BME280;2075;51.062;6.920;2022-10-16T07:41:23;28391.13;;;-144.48;100.00
4123;BME280;2075;51.062;6.920;2022-10-16T07:44:08;29921.88;;;-144.48;100.00
4123;BME280;2075;51.062;6.920;2022-10-16T07:46:54;24822.16;;;-144.48;100.00
4123;BME280;2075;51.062;6.920;2022-10-16T07:49:39;17949.91;;;-144.48;100.00
4123;BME280;2075;51.062;6.920;2022-10-16T07:52:26;12868.53;;;-144.48;100.00
4123;BME280;2075;51.062;6.920;2022-10-16T07:55:15;9569.81;;;-144.48;100.00
4123;BME280;2075;51.062;6.920;2022-10-16T07:58:00;6274.38;;;-144.48;100.00
4123;BME280;2075;51.062;6.920;2022-10-16T08:00:45;9569.81;;;-144.48;100.00
4123;BME280;2075;51.062;6.920;2022-10-16T08:03:31;10838.16;;;-144.48;100.00
4123;BME280;2075;51.062;6.920;2022-10-16T08:06:17;9823.44;;;-144.48;100.00
4123;BME280;2075;51.062;6.920;2022-10-16T08:09:04;8555.47;;;-144.48;100.00
4123;BME280;2075;51.062;6.920;2022-10-16T08:11:50;14138.13;;;-144.48;100.00
4123;BME280;2075;51.062;6.920;2022-10-16T08:14:36;14392.13;;;-144.48;100.00
4123;BME280;2075;51.062;6.920;2022-10-16T08:17:22;21002.47;;;-144.48;100.00
4123;BME280;2075;51.062;6.920;2022-10-16T08:20:09;24057.88;;;-144.48;100.00
4123;BME280;2075;51.062;6.920;2022-10-16T08:22:54;27116.06;;;-144.48;100.00
4123;BME280;2075;51.062;6.920;2022-10-16T08:25:41;24057.88;;;-144.48;100.00
4123;BME280;2075;51.062;6.920;2022-10-16T08:28:27;23803.16;;;-144.48;100.00
4123;BME280;2075;51.062;6.920;2022-10-16T08:31:13;19475.84;;;-144.48;100.00
4123;BME280;2075;51.062;6.920;2022-10-16T08:33:59;23803.16;;;-144.48;100.00
4123;BME280;2075;51.062;6.920;2022-10-16T08:36:44;32219.28;;;-144.48;100.00
4123;BME280;2075;51.062;6.920;2022-10-16T08:39:30;34007.25;;;-144.48;100.00
4123;BME280;2075;51.062;6.920;2022-10-16T08:42:25;38865.16;;;-144.48;100.00
4123;BME280;2075;51.062;6.920;2022-10-16T08:45:32;45011.50;;;-144.48;100.00
4123;BME280;2075;51.062;6.920;2022-10-16T08:48:22;44498.88;;;-144.48;100.00
4123;BME280;2075;51.062;6.920;2022-10-16T08:51:19;46036.97;;;-144.48;100.00
4123;BME280;2075;51.062;6.920;2022-10-16T08:54:08;50912.28;;;-144.48;100.00
4123;BME280;2075;51.062;6.920;2022-10-16T08:57:07;52196.44;;;-144.48;100.00
4123;BME280;2075;51.062;6.920;2022-10-16T09:00:00;55794.63;;;-144.48;100.00
4123;BME280;2075;51.062;6.920;2022-10-16T09:02:50;62744.81;;;-144.48;100.00
4123;BME280;2075;51.062;6.920;2022-10-16T09:05:52;72199.34;;;-144.48;100.00
4123;BME280;2075;51.062;6.920;2022-10-16T09:08:51;78416.50;;;-144.48;100.00
4123;BME280;2075;51.062;6.920;2022-10-16T09:11:48;77021.34;;;-144.48;100.00
4123;BME280;2075;51.062;6.920;2022-10-16T09:15:01;85694.53;;;-144.48;100.00
4123;BME280;2075;51.062;6.920;2022-10-16T09:17:54;87265.53;;;-144.48;100.00
4123;BME280;2075;51.062;6.920;2022-10-16T09:20:47;88161.81;;;-144.48;100.00
4123;BME280;2075;51.062;6.920;2022-10-16T09:23:35;88395.06;;;-144.48;100.00
4123;BME280;2075;51.062;6.920;2022-10-16T09:26:21;90371.09;;;-144.48;100.00
4123;BME280;2075;51.062;6.920;2022-10-16T09:29:08;92252.84;;;-144.48;100.00
4123;BME280;2075;51.062;6.920;2022-10-16T09:31:57;92305.63;;;-144.48;100.00
4123;BME280;2075;51.062;6.920;2022-10-16T09:34:54;92173.66;;;-144.48;100.00
4123;BME280;2075;51.062;6.920;2022-10-16T09:37:42;92279.25;;;-144.48;100.00
4123;BME280;2075;51.062;6.920;2022-10-16T09:40:31;92744.25;;;-144.48;100.00
4123;BME280;2075;51.062;6.920;2022-10-16T09:43:22;92929.06;;;-144.48;100.00
4123;BME280;2075;51.062;6.920;2022-10-16T09:46:21;93103.72;;;-144.48;100.00
4123;BME280;2075;51.062;6.920;2022-10-16T09:49:21;93274.34;;;-144.48;100.00
4123;BME280;2075;51.062;6.920;2022-10-16T09:52:12;93274.34;;;-144.48;100.00
4123;BME280;2075;51.062;6.920;2022-10-16T09:55:00;93286.50;;;-144.48;100.00
4123;BME280;2075;51.062;6.920;2022-10-16T09:57:49;93308.84;;;-144.48;100.00
4123;BME280;2075;51.062;6.920;2022-10-16T10:00:34;93323.06;;;-144.48;100.00
4123;BME280;2075;51.062;6.920;2022-10-16T10:03:36;93361.66;;;-144.48;100.00
4123;BME280;2075;51.062;6.920;2022-10-16T10:06:25;93373.84;;;-144.48;100.00
4123;BME280;2075;51.062;6.920;2022-10-16T10:09:17;93394.16;;;-144.48;100.00
4123;BME280;2075;51.062;6.920;2022-10-16T10:12:04;93367.75;;;-144.48;100.00
4123;BME280;2075;51.062;6.920;2022-10-16T10:14:51;93424.63;;;-144.48;100.00
4123;BME280;2075;51.062;6.920;2022-10-16T10:17:46;93390.09;;;-144.48;98.24
4123;BME280;2075;51.062;6.920;2022-10-16T10:20:36;93394.16;;;-144.48;95.50
4123;BME280;2075;51.062;6.920;2022-10-16T10:23:25;93420.56;;;-144.48;94.49
4123;BME280;2075;51.062;6.920;2022-10-16T10:26:16;93355.56;;;-144.48;94.51
4123;BME280;2075;51.062;6.920;2022-10-16T10:29:06;93347.44;;;-144.48;90.84
4123;BME280;2075;51.062;6.920;2022-10-16T10:32:03;93312.91;;;-144.48;84.27
4123;BME280;2075;51.062;6.920;2022-10-16T10:35:04;93229.66;;;-144.48;72.76
4123;BME280;2075;51.062;6.920;2022-10-16T10:38:02;93182.94;;;-144.48;69.09
4123;BME280;2075;51.062;6.920;2022-10-16T10:41:04;93223.56;;;-144.48;67.70
4123;BME280;2075;51.062;6.920;2022-10-16T10:44:03;93262.16;;;-144.48;69.46
4123;BME280;2075;51.062;6.920;2022-10-16T10:46:56;93308.84;;;-144.48;68.41
4123;BME280;2075;51.062;6.920;2022-10-16T10:49:51;93304.78;;;-144.48;68.84
4123;BME280;2075;51.062;6.920;2022-10-16T10:52:49;93325.09;;;-144.48;70.96
4123;BME280;2075;51.062;6.920;2022-10-16T10:55:40;93262.16;;;-144.48;68.66
4123;BME280;2075;51.062;6.920;2022-10-16T10:58:53;93323.06;;;-144.48;66.75
4123;BME280;2075;51.062;6.920;2022-10-16T11:01:48;93286.50;;;-144.48;65.04
4123;BME280;2075;51.062;6.920;2022-10-16T11:08:08;93223.56;;;-144.48;60.60
4123;BME280;2075;51.062;6.920;2022-10-16T11:10:58;93205.28;;;-144.48;60.51
4123;BME280;2075;51.062;6.920;2022-10-16T11:13:50;93249.97;;;-144.48;60.70
4123;BME280;2075;51.062;6.920;2022-10-16T11:16:44;93249.97;;;-144.48;60.29
4123;BME280;2075;51.062;6.920;2022-10-16T11:19:37;93193.09;;;-144.48;59.81
4123;BME280;2075;51.062;6.920;2022-10-16T11:22:28;93152.47;;;-144.48;58.28
4123;BME280;2075;51.062;6.920;2022-10-16T11:25:18;93221.53;;;-144.48;58.92
4123;BME280;2075;51.062;6.920;2022-10-16T11:28:10;93193.09;;;-144.48;59.54
4123;BME280;2075;51.062;6.920;2022-10-16T11:31:00;93286.50;;;-144.48;60.27
4123;BME280;2075;51.062;6.920;2022-10-16T11:33:51;93282.44;;;-144.48;61.23
4123;BME280;2075;51.062;6.920;2022-10-16T11:36:42;93233.72;;;-144.48;62.09
4123;BME280;2075;51.062;6.920;2022-10-16T11:39:30;93286.50;;;-144.48;61.52
4123;BME280;2075;51.062;6.920;2022-10-16T11:42:19;93187.00;;;-144.48;59.07
4123;BME280;2075;51.062;6.920;2022-10-16T11:45:15;93215.44;;;-144.48;58.39
4123;BME280;2075;51.062;6.920;2022-10-16T11:48:15;93254.03;;;-144.48;58.09
4123;BME280;2075;51.062;6.920;2022-10-16T11:51:11;93233.72;;;-144.48;58.83
4123;BME280;2075;51.062;6.920;2022-10-16T11:54:05;93270.25;;;-144.48;58.94
4123;BME280;2075;51.062;6.920;2022-10-16T11:56:59;93221.53;;;-144.48;57.99
4123;BME280;2075;51.062;6.920;2022-10-16T11:59:48;93193.09;;;-144.48;57.62
4123;BME280;2075;51.062;6.920;2022-10-16T12:02:49;93136.22;;;-144.48;55.95
4123;BME280;2075;51.062;6.920;2022-10-16T12:05:46;93119.97;;;-144.48;54.68
4123;BME280;2075;51.062;6.920;2022-10-16T12:08:38;93130.13;;;-144.48;55.22
4123;BME280;2075;51.062;6.920;2022-10-16T12:11:32;93176.84;;;-144.48;55.05
4123;BME280;2075;51.062;6.920;2022-10-16T12:14:21;93164.66;;;-144.48;56.11
4123;BME280;2075;51.062;6.920;2022-10-16T12:17:27;93184.97;;;-144.48;56.40
4123;BME280;2075;51.062;6.920;2022-10-16T12:20:24;93193.09;;;-144.48;55.57
4123;BME280;2075;51.062;6.920;2022-10-16T12:23:19;93197.16;;;-144.48;55.58
4123;BME280;2075;51.062;6.920;2022-10-16T12:26:07;93207.31;;;-144.48;56.60
4123;BME280;2075;51.062;6.920;2022-10-16T12:28:53;93201.22;;;-144.48;56.44
4123;BME280;2075;51.062;6.920;2022-10-16T12:31:43;93132.16;;;-144.48;54.57
4123;BME280;2075;51.062;6.920;2022-10-16T12:34:35;93128.09;;;-144.48;54.23
4123;BME280;2075;51.062;6.920;2022-10-16T12:37:25;93075.28;;;-144.48;51.97
4123;BME280;2075;51.062;6.920;2022-10-16T12:40:13;93071.22;;;-144.48;52.67
4123;BME280;2075;51.062;6.920;2022-10-16T12:43:11;93156.53;;;-144.48;53.29
4123;BME280;2075;51.062;6.920;2022-10-16T12:46:02;93172.78;;;-144.48;52.90
4123;BME280;2075;51.062;6.920;2022-10-16T12:48:48;93168.72;;;-144.48;53.49
4123;BME280;2075;51.062;6.920;2022-10-16T12:51:36;93134.19;;;-144.48;53.11
4123;BME280;2075;51.062;6.920;2022-10-16T12:54:26;93063.09;;;-144.48;52.11
4123;BME280;2075;51.062;6.920;2022-10-16T12:57:32;92953.44;;;-144.48;49.28
4123;BME280;2075;51.062;6.920;2022-10-16T13:00:25;92902.66;;;-144.48;47.35
4123;BME280;2075;51.062;6.920;2022-10-16T13:03:38;92862.03;;;-144.48;47.16
4123;BME280;2075;51.062;6.920;2022-10-16T13:06:35;92811.28;;;-144.48;46.53
4123;BME280;2075;51.062;6.920;2022-10-16T13:09:38;92790.97;;;-144.48;45.16
4123;BME280;2075;51.062;6.920;2022-10-16T13:12:48;92786.91;;;-144.48;45.00
4123;BME280;2075;51.062;6.920;2022-10-16T13:15:45;92725.97;;;-144.48;44.87
4123;BME280;2075;51.062;6.920;2022-10-16T13:18:43;92811.28;;;-144.48;44.66
4123;BME280;2075;51.062;6.920;2022-10-16T13:21:36;92847.81;;;-144.48;45.53
4123;BME280;2075;51.062;6.920;2022-10-16T13:24:36;92959.53;;;-144.48;46.58
4123;BME280;2075;51.062;6.920;2022-10-16T13:27:35;93024.53;;;-144.48;48.14
4123;BME280;2075;51.062;6.920;2022-10-16T13:30:26;93016.41;;;-144.48;48.39
4123;BME280;2075;51.062;6.920;2022-10-16T13:33:17;93008.28;;;-144.48;49.75
4123;BME280;2075;51.062;6.920;2022-10-16T13:36:05;93063.09;;;-144.48;50.36
4123;BME280;2075;51.062;6.920;2022-10-16T13:39:01;93040.75;;;-144.48;50.19
4123;BME280;2075;51.062;6.920;2022-10-16T13:42:01;93050.91;;;-144.48;51.04
4123;BME280;2075;51.062;6.920;2022-10-16T13:44:49;93077.31;;;-144.48;51.17
4123;BME280;2075;51.062;6.920;2022-10-16T13:47:35;93073.25;;;-144.48;51.05
4123;BME280;2075;51.062;6.920;2022-10-16T13:50:22;93054.97;;;-144.48;51.72
4123;BME280;2075;51.062;6.920;2022-10-16T13:53:13;93079.34;;;-144.48;52.40
4123;BME280;2075;51.062;6.920;2022-10-16T13:55:58;93083.41;;;-144.48;53.25
4123;BME280;2075;51.062;6.920;2022-10-16T13:58:45;93156.53;;;-144.48;52.48
4123;BME280;2075;51.062;6.920;2022-10-16T14:01:33;93203.25;;;-144.48;51.91
4123;BME280;2075;51.062;6.920;2022-10-16T14:04:19;93193.09;;;-144.48;52.46
4123;BME280;2075;51.062;6.920;2022-10-16T14:07:23;93172.78;;;-144.48;51.88
4123;BME280;2075;51.062;6.920;2022-10-16T14:10:20;93156.53;;;-144.48;50.29
4123;BME280;2075;51.062;6.920;2022-10-16T14:13:08;93136.22;;;-144.48;50.45
4123;BME280;2075;51.062;6.920;2022-10-16T14:16:00;93144.34;;;-144.48;49.93
4123;BME280;2075;51.062;6.920;2022-10-16T14:18:55;93109.81;;;-144.48;49.85
4123;BME280;2075;51.062;6.920;2022-10-16T14:21:41;93048.88;;;-144.48;49.23
4123;BME280;2075;51.062;6.920;2022-10-16T14:24:32;93030.59;;;-144.48;49.19
4123;BME280;2075;51.062;6.920;2022-10-16T14:27:26;93042.78;;;-144.48;49.14
4123;BME280;2075;51.062;6.920;2022-10-16T14:30:14;93272.28;;;-144.48;49.33
4123;BME280;2075;51.062;6.920;2022-10-16T14:33:02;93107.78;;;-144.48;49.77
4123;BME280;2075;51.062;6.920;2022-10-16T14:35:59;93105.75;;;-144.48;50.60
4123;BME280;2075;51.062;6.920;2022-10-16T14:38:49;93152.47;;;-144.48;51.43
4123;BME280;2075;51.062;6.920;2022-10-16T14:41:42;93107.78;;;-144.48;51.75
4123;BME280;2075;51.062;6.920;2022-10-16T14:44:31;93180.91;;;-144.48;51.70
4123;BME280;2075;51.062;6.920;2022-10-16T14:47:19;93178.88;;;-144.48;52.24
4123;BME280;2075;51.062;6.920;2022-10-16T14:50:08;93180.91;;;-144.48;52.95
4123;BME280;2075;51.062;6.920;2022-10-16T14:52:54;93168.72;;;-144.48;53.66